createdAt,value
2023-02-10T00:00:26.506Z,28.35
2023-02-10T00:03:28.804Z,22.58
2023-02-10T00:06:31.492Z,29.23
2023-02-10T00:09:33.865Z,26.92
2023-02-10T00:12:39.522Z,26.62
2023-02-10T00:15:41.794Z,28.77
2023-02-10T00:18:44.132Z,28.45
2023-02-10T00:21:47.010Z,27.33
2023-02-10T00:24:49.361Z,28.73
2023-02-10T00:27:51.869Z,25.58
2023-02-10T00:30:54.290Z,28.80
2023-02-10T00:33:56.779Z,22.83
2023-02-10T00:36:59.129Z,24.40
2023-02-10T00:40:01.534Z,25.10
2023-02-10T00:43:03.881Z,22.77
2023-02-10T00:46:06.321Z,22.75
2023-02-10T00:49:11.424Z,21.95
2023-02-10T00:52:13.745Z,29.08
2023-02-10T00:55:16.185Z,19.27
2023-02-10T00:58:18.589Z,22.00
2023-02-10T01:01:21.386Z,20.60
2023-02-10T01:04:23.822Z,19.55
2023-02-10T01:07:26.176Z,20.50
2023-02-10T01:10:29.264Z,19.53
2023-02-10T01:13:31.859Z,21.17
2023-02-10T01:16:34.275Z,21.25
2023-02-10T01:19:37.012Z,21.67
2023-02-10T01:22:39.411Z,22.87
2023-02-10T01:25:41.671Z,21.60
2023-02-10T01:28:44.450Z,23.33
2023-02-10T01:31:46.926Z,21.70
2023-02-10T01:34:49.292Z,19.12
2023-02-10T01:37:51.670Z,21.92
2023-02-10T01:40:53.953Z,24.17
2023-02-10T01:44:27.323Z,21.73
2023-02-10T01:47:30.408Z,17.80
2023-02-10T01:51:00.763Z,18.87
2023-02-10T01:54:04.045Z,18.77
2023-02-10T01:57:06.801Z,18.37
2023-02-10T02:00:10.351Z,22.27
2023-02-10T02:03:14.367Z,20.77
2023-02-10T02:06:16.925Z,18.55
2023-02-10T02:09:19.312Z,24.15
2023-02-10T02:12:24.559Z,19.08
2023-02-10T02:15:39.313Z,18.45
2023-02-10T02:18:48.535Z,14.57
2023-02-10T02:22:23.088Z,17.23
2023-02-10T02:25:40.613Z,17.13
2023-02-10T02:28:55.246Z,23.10
2023-02-10T02:32:23.417Z,17.12
2023-02-10T02:35:29.642Z,8.37
2023-02-10T02:38:37.792Z,17.60
2023-02-10T02:41:40.354Z,16.75
2023-02-10T02:44:46.436Z,15.65
2023-02-10T02:47:51.297Z,17.35
2023-02-10T02:51:05.646Z,18.60
2023-02-10T02:54:26.640Z,8.05
2023-02-10T02:57:45.040Z,16.87
2023-02-10T03:00:49.544Z,18.73
2023-02-10T03:03:54.707Z,16.17
2023-02-10T03:06:57.109Z,21.03
2023-02-10T03:09:59.408Z,18.40
2023-02-10T03:13:01.849Z,20.65
2023-02-10T03:16:04.675Z,9.57
2023-02-10T03:19:07.101Z,17.65
2023-02-10T03:22:09.736Z,17.48
2023-02-10T03:25:12.319Z,16.23
2023-02-10T03:28:14.994Z,21.93
2023-02-10T03:31:17.751Z,19.92
2023-02-10T03:34:20.614Z,16.70
2023-02-10T03:37:23.090Z,18.53
2023-02-10T03:40:25.401Z,10.68
2023-02-10T03:43:27.747Z,12.95
2023-02-10T03:46:30.144Z,13.55
2023-02-10T03:49:32.635Z,13.73
2023-02-10T03:52:36.501Z,21.35
2023-02-10T03:55:40.121Z,21.33
2023-02-10T03:58:42.411Z,14.13
2023-02-10T04:01:44.822Z,16.33
2023-02-10T04:04:47.191Z,16.12
2023-02-10T04:07:49.643Z,20.40
2023-02-10T04:10:52.136Z,16.98
2023-02-10T04:13:54.528Z,13.57
2023-02-10T04:16:56.876Z,23.15
2023-02-10T04:19:59.293Z,18.83
2023-02-10T04:23:01.844Z,19.75
2023-02-10T04:26:04.777Z,22.42
2023-02-10T04:29:07.300Z,13.37
2023-02-10T04:32:09.979Z,18.35
2023-02-10T04:35:12.304Z,10.80
2023-02-10T04:38:14.791Z,14.10
2023-02-10T04:41:17.096Z,8.95
2023-02-10T04:44:19.494Z,14.05
2023-02-10T04:47:21.820Z,10.65
2023-02-10T04:50:24.558Z,18.42
2023-02-10T04:53:26.963Z,14.75
2023-02-10T04:56:29.286Z,14.32
2023-02-10T04:59:31.570Z,20.67
2023-02-10T05:02:33.910Z,15.32
2023-02-10T05:05:36.338Z,14.18
2023-02-10T05:08:42.725Z,20.73
2023-02-10T05:11:45.185Z,24.35
2023-02-10T05:14:47.518Z,16.00
2023-02-10T05:17:50.844Z,18.80
2023-02-10T05:20:53.181Z,16.90
2023-02-10T05:23:55.633Z,16.08
2023-02-10T05:26:58.376Z,13.38
2023-02-10T05:30:00.737Z,24.63
2023-02-10T05:33:03.077Z,15.30
2023-02-10T05:36:06.588Z,19.25
2023-02-10T05:39:24.324Z,15.10
2023-02-10T05:42:26.744Z,20.70
2023-02-10T05:45:29.574Z,16.40
2023-02-10T05:48:32.246Z,18.00
2023-02-10T05:51:34.846Z,17.80
2023-02-10T05:54:37.609Z,26.62
2023-02-10T05:57:40.155Z,28.23
2023-02-10T06:00:42.782Z,10.83
2023-02-10T06:03:45.172Z,19.05
2023-02-10T06:06:48.650Z,16.30
2023-02-10T06:09:51.121Z,17.03
2023-02-10T06:12:53.535Z,22.95
2023-02-10T06:15:55.853Z,18.05
2023-02-10T06:18:58.354Z,13.77
2023-02-10T06:22:00.675Z,23.23
2023-02-10T06:25:02.936Z,16.30
2023-02-10T06:28:05.846Z,14.93
2023-02-10T06:31:08.865Z,21.23
2023-02-10T06:34:11.348Z,19.65
2023-02-10T06:37:13.665Z,17.10
2023-02-10T06:43:36.134Z,19.30
2023-02-10T06:46:38.415Z,24.05
2023-02-10T06:49:40.853Z,37.28
2023-02-10T06:52:43.221Z,25.08
2023-02-10T06:55:45.666Z,35.78
2023-02-10T06:58:48.027Z,23.60
2023-02-10T07:01:50.451Z,21.17
2023-02-10T07:04:52.804Z,24.48
2023-02-10T07:07:55.456Z,24.85
2023-02-10T07:10:57.784Z,34.40
2023-02-10T07:14:00.219Z,30.17
2023-02-10T07:17:03.612Z,26.00
2023-02-10T07:20:07.094Z,37.47
2023-02-10T07:23:09.747Z,31.02
2023-02-10T07:26:13.303Z,32.63
2023-02-10T07:29:15.697Z,35.78
2023-02-10T07:32:18.076Z,30.83
2023-02-10T07:35:22.549Z,34.20
2023-02-10T07:38:25.737Z,37.17
2023-02-10T07:41:28.111Z,30.27
2023-02-10T07:44:30.826Z,51.75
2023-02-10T07:47:33.152Z,47.42
2023-02-10T07:50:35.679Z,58.10
2023-02-10T07:53:40.986Z,48.30
2023-02-10T07:56:43.303Z,64.47
2023-02-10T07:59:45.605Z,52.33
2023-02-10T08:02:48.031Z,57.92
2023-02-10T08:05:50.653Z,44.95
2023-02-10T08:08:53.461Z,61.72
2023-02-10T08:11:56.248Z,57.37
2023-02-10T08:14:58.579Z,55.60
2023-02-10T08:18:02.052Z,58.30
2023-02-10T08:21:05.210Z,53.47
2023-02-10T08:24:07.595Z,57.70
2023-02-10T08:27:12.233Z,48.80
2023-02-10T08:30:14.761Z,48.00
2023-02-10T08:33:17.225Z,38.83
2023-02-10T08:36:21.034Z,35.50
2023-02-10T08:39:23.529Z,22.20
2023-02-10T08:42:26.497Z,28.60
2023-02-10T08:45:28.917Z,31.73
2023-02-10T08:48:31.718Z,33.30
2023-02-10T08:51:34.389Z,31.92
2023-02-10T08:54:37.180Z,37.45
2023-02-10T08:57:39.924Z,31.50
2023-02-10T09:00:42.228Z,34.17
2023-02-10T09:03:45.067Z,35.72
2023-02-10T09:06:47.438Z,33.95
2023-02-10T09:09:50.018Z,38.80
2023-02-10T09:12:52.574Z,39.17
2023-02-10T09:15:54.874Z,34.10
2023-02-10T09:18:57.308Z,22.75
2023-02-10T09:21:59.857Z,35.22
2023-02-10T09:25:02.206Z,34.17
2023-02-10T09:28:04.761Z,33.60
2023-02-10T09:31:09.014Z,29.97
2023-02-10T09:34:11.637Z,26.67
2023-02-10T09:37:13.993Z,34.83
2023-02-10T09:40:28.979Z,31.45
2023-02-10T09:43:49.880Z,29.37
2023-02-10T09:46:56.324Z,27.63
2023-02-10T09:50:17.321Z,29.05
2023-02-10T09:53:21.407Z,24.60
2023-02-10T09:56:25.886Z,27.58
2023-02-10T09:59:29.930Z,30.07
2023-02-10T10:02:44.725Z,29.13
2023-02-10T10:06:04.592Z,27.60
2023-02-10T10:09:09.833Z,27.33
2023-02-10T10:12:20.201Z,20.62
2023-02-10T10:15:26.585Z,24.23
2023-02-10T10:18:49.089Z,21.47
2023-02-10T10:22:14.740Z,24.52
2023-02-10T10:25:34.188Z,18.27
2023-02-10T10:29:22.024Z,17.37
2023-02-10T10:32:44.435Z,24.80
2023-02-10T10:35:47.103Z,13.13
2023-02-10T10:38:55.674Z,22.37
2023-02-10T10:42:02.307Z,14.87
2023-02-10T10:45:18.724Z,16.85
2023-02-10T10:48:27.796Z,19.10
2023-02-10T10:51:31.535Z,21.30
2023-02-10T10:54:33.842Z,18.62
2023-02-10T10:57:36.159Z,22.70
2023-02-10T11:00:38.580Z,23.65
2023-02-10T11:03:41.014Z,15.93
2023-02-10T11:06:46.546Z,18.93
2023-02-10T11:09:54.386Z,22.70
2023-02-10T11:12:58.657Z,22.67
2023-02-10T11:16:04.585Z,26.17
2023-02-10T11:19:18.990Z,23.73
2023-02-10T11:22:22.916Z,16.73
2023-02-10T11:25:25.151Z,22.37
2023-02-10T11:28:30.652Z,22.87
2023-02-10T11:31:37.236Z,21.17
2023-02-10T11:34:48.484Z,24.30
2023-02-10T11:38:01.588Z,27.40
2023-02-10T11:41:09.740Z,21.35
2023-02-10T11:44:32.900Z,22.52
2023-02-10T11:47:35.294Z,17.12
2023-02-10T11:50:38.170Z,22.70
2023-02-10T11:53:41.548Z,21.90
2023-02-10T11:57:14.440Z,17.30
2023-02-10T12:00:21.081Z,24.63
2023-02-10T12:03:48.842Z,24.85
2023-02-10T12:07:21.357Z,25.90
2023-02-10T12:10:29.823Z,20.67
2023-02-10T12:13:44.292Z,25.10
2023-02-10T12:17:00.684Z,15.90
2023-02-10T12:20:39.574Z,19.35
2023-02-10T12:23:57.564Z,18.90
2023-02-10T12:27:43.606Z,21.33
2023-02-10T12:31:00.252Z,25.12
2023-02-10T12:34:23.321Z,19.08
2023-02-10T12:37:52.287Z,22.35
2023-02-10T12:40:58.403Z,27.63
2023-02-10T12:44:23.265Z,26.77
2023-02-10T12:47:35.014Z,22.87
2023-02-10T12:50:47.952Z,27.48
2023-02-10T12:53:58.590Z,28.23
2023-02-10T12:57:14.325Z,31.10
2023-02-10T13:00:58.688Z,32.87
2023-02-10T13:04:19.337Z,33.67
2023-02-10T13:07:33.809Z,27.02
2023-02-10T13:10:47.363Z,33.60
2023-02-10T13:13:51.336Z,32.17
2023-02-10T13:16:59.573Z,33.47
2023-02-10T13:20:19.016Z,32.38
2023-02-10T13:23:43.475Z,31.30
2023-02-10T13:27:07.053Z,31.58
2023-02-10T13:30:53.843Z,29.77
2023-02-10T13:34:17.663Z,30.43
2023-02-10T13:37:31.414Z,30.12
2023-02-10T13:41:15.706Z,33.08
2023-02-10T13:44:27.117Z,31.37
2023-02-10T13:47:36.444Z,27.87
2023-02-10T13:50:50.009Z,27.97
2023-02-10T13:53:52.564Z,26.80
2023-02-10T13:56:56.664Z,29.65
2023-02-10T14:00:11.213Z,29.55
2023-02-10T14:03:13.917Z,23.47
2023-02-10T14:06:16.338Z,26.53
2023-02-10T14:09:34.743Z,31.87
2023-02-10T14:12:37.617Z,23.48
2023-02-10T14:15:41.733Z,21.05
2023-02-10T14:18:47.397Z,24.23
2023-02-10T14:21:50.564Z,21.53
2023-02-10T14:24:56.127Z,22.20
2023-02-10T14:27:59.838Z,23.73
2023-02-10T14:31:11.513Z,23.75
2023-02-10T14:34:25.055Z,23.53
2023-02-10T14:37:28.535Z,19.83
2023-02-10T14:40:33.322Z,23.40
2023-02-10T14:43:38.419Z,18.52
2023-02-10T14:46:41.517Z,16.20
2023-02-10T14:49:44.435Z,21.10
2023-02-10T14:52:49.871Z,22.43
2023-02-10T14:55:59.950Z,22.55
2023-02-10T14:59:04.009Z,22.95
2023-02-10T15:02:23.752Z,19.00
2023-02-10T15:05:37.868Z,25.00
2023-02-10T15:09:16.056Z,23.00
2023-02-10T15:12:22.500Z,18.83
2023-02-10T15:15:30.804Z,23.27
2023-02-10T15:18:40.660Z,24.05
2023-02-10T15:21:43.692Z,21.07
2023-02-10T15:24:47.352Z,21.23
2023-02-10T15:27:50.497Z,24.37
2023-02-10T15:31:07.145Z,23.98
2023-02-10T15:34:39.270Z,24.60
2023-02-10T15:37:42.976Z,21.00
2023-02-10T15:40:54.512Z,22.87
2023-02-10T15:43:57.962Z,24.95
2023-02-10T15:47:18.589Z,23.42
2023-02-10T15:50:22.168Z,25.15
2023-02-10T15:53:25.519Z,26.33
2023-02-10T15:56:38.455Z,25.87
2023-02-10T15:59:43.455Z,24.40
2023-02-10T16:02:46.490Z,27.50
2023-02-10T16:05:50.010Z,26.92
2023-02-10T16:08:54.833Z,25.73
2023-02-10T16:11:59.741Z,25.23
2023-02-10T16:15:04.451Z,30.45
2023-02-10T16:18:07.804Z,38.35
2023-02-10T16:21:17.391Z,33.50
2023-02-10T16:24:24.224Z,28.07
2023-02-10T16:27:27.178Z,26.73
2023-02-10T16:30:38.898Z,27.25
2023-02-10T16:33:47.092Z,30.88
2023-02-10T16:36:50.846Z,29.95
2023-02-10T16:39:55.235Z,30.37
2023-02-10T16:42:59.707Z,38.00
2023-02-10T16:46:05.780Z,34.70
2023-02-10T16:49:11.022Z,37.67
2023-02-10T16:52:14.480Z,38.38
2023-02-10T16:55:19.131Z,35.47
2023-02-10T16:58:23.520Z,56.83
2023-02-10T17:01:27.377Z,44.35
2023-02-10T17:04:32.334Z,39.30
2023-02-10T17:07:40.748Z,39.08
2023-02-10T17:10:48.327Z,36.07
2023-02-10T17:13:53.501Z,41.27
2023-02-10T17:16:57.306Z,41.33
2023-02-10T17:20:01.090Z,34.63
2023-02-10T17:23:05.155Z,32.63
2023-02-10T17:26:13.757Z,38.40
2023-02-10T17:29:19.636Z,37.30
2023-02-10T17:32:24.336Z,35.35
2023-02-10T17:35:28.967Z,42.47
2023-02-10T17:38:51.052Z,37.33
2023-02-10T17:41:55.763Z,35.13
2023-02-10T17:45:04.661Z,40.07
2023-02-10T17:48:20.328Z,40.53
2023-02-10T17:51:25.557Z,34.85
2023-02-10T17:54:35.410Z,39.70
2023-02-10T17:57:42.489Z,36.00
2023-02-10T18:00:47.402Z,38.00
2023-02-10T18:03:51.944Z,68.93
2023-02-10T18:07:06.926Z,37.08
2023-02-10T18:10:12.721Z,37.45
2023-02-10T18:13:19.858Z,51.93
2023-02-10T18:16:23.636Z,33.45
2023-02-10T18:19:29.643Z,47.50
2023-02-10T18:22:33.894Z,41.17
2023-02-10T18:25:39.355Z,53.33
2023-02-10T18:28:43.636Z,51.67
2023-02-10T18:31:47.787Z,47.30
2023-02-10T18:34:51.792Z,54.10
2023-02-10T18:37:55.716Z,49.60
2023-02-10T18:41:00.547Z,45.85
2023-02-10T18:44:04.525Z,49.13
2023-02-10T18:47:10.118Z,46.60
2023-02-10T18:50:20.588Z,43.95
2023-02-10T18:53:29.942Z,39.10
2023-02-10T18:56:35.608Z,40.55
2023-02-10T18:59:39.705Z,38.77
2023-02-10T19:02:45.197Z,37.03
2023-02-10T19:05:51.367Z,41.30
2023-02-10T19:08:56.092Z,36.55
2023-02-10T19:11:59.769Z,38.38
2023-02-10T19:15:03.912Z,41.63
2023-02-10T19:18:10.634Z,37.10
2023-02-10T19:24:38.650Z,37.30
2023-02-10T19:27:43.952Z,35.72
2023-02-10T19:30:47.940Z,35.27
2023-02-10T19:33:57.056Z,32.35
2023-02-10T19:37:08.356Z,32.10
2023-02-10T19:40:15.364Z,33.80
2023-02-10T19:43:20.187Z,34.78
2023-02-10T19:46:25.636Z,31.40
2023-02-10T19:49:29.940Z,39.83
2023-02-10T19:52:39.624Z,39.40
2023-02-10T19:55:44.218Z,35.78
2023-02-10T19:58:47.871Z,33.92
2023-02-10T20:01:55.914Z,34.60
2023-02-10T20:05:04.049Z,33.60
2023-02-10T20:08:08.121Z,35.65
2023-02-10T20:11:16.514Z,32.85
2023-02-10T20:14:22.002Z,38.47
2023-02-10T20:17:30.274Z,37.20
2023-02-10T20:20:34.195Z,33.78
2023-02-10T20:23:40.329Z,42.65
2023-02-10T20:26:45.251Z,42.28
2023-02-10T20:29:49.031Z,41.58
2023-02-10T20:32:53.431Z,41.87
2023-02-10T20:36:03.011Z,42.13
2023-02-10T20:39:11.094Z,39.95
2023-02-10T20:42:16.281Z,37.15
2023-02-10T20:45:21.677Z,38.15
2023-02-10T20:48:25.894Z,38.90
2023-02-10T20:51:29.534Z,41.17
2023-02-10T20:54:33.651Z,42.55
2023-02-10T20:57:38.980Z,46.42
2023-02-10T21:00:42.794Z,39.90
2023-02-10T21:03:47.546Z,45.53
2023-02-10T21:06:52.048Z,41.70
2023-02-10T21:09:57.078Z,48.47
2023-02-10T21:13:01.083Z,44.25
2023-02-10T21:16:05.341Z,46.83
2023-02-10T21:19:09.670Z,53.03
2023-02-10T21:22:15.681Z,40.83
2023-02-10T21:25:20.847Z,46.05
2023-02-10T21:28:24.775Z,36.83
2023-02-10T21:31:32.274Z,46.63
2023-02-10T21:34:36.432Z,54.50
2023-02-10T21:37:40.092Z,49.63
2023-02-10T21:40:46.284Z,44.63
2023-02-10T21:43:50.185Z,41.30
2023-02-10T21:46:59.334Z,35.92
2023-02-10T21:50:04.020Z,50.60
2023-02-10T21:53:06.841Z,54.85
2023-02-10T21:56:09.469Z,52.97
2023-02-10T21:59:15.374Z,43.72
2023-02-10T22:02:18.402Z,40.55
2023-02-10T22:05:20.666Z,39.60
2023-02-10T22:08:24.078Z,37.63
2023-02-10T22:11:27.298Z,45.15
2023-02-10T22:14:29.897Z,46.83
2023-02-10T22:17:32.502Z,48.28
2023-02-10T22:20:35.001Z,50.40
2023-02-10T22:23:37.372Z,47.40
2023-02-10T22:26:40.134Z,47.62
2023-02-10T22:29:42.429Z,52.33
2023-02-10T22:32:45.041Z,41.93
2023-02-10T22:35:47.705Z,52.60
2023-02-10T22:38:51.092Z,37.05
2023-02-10T22:41:53.499Z,37.58
2023-02-10T22:44:55.752Z,45.90
2023-02-10T22:47:58.098Z,37.83
2023-02-10T22:51:12.286Z,41.92
2023-02-10T22:54:14.909Z,43.40
2023-02-10T22:57:18.336Z,45.40
2023-02-10T23:00:26.789Z,47.87
2023-02-10T23:03:29.321Z,49.20
2023-02-10T23:06:31.715Z,45.50
2023-02-10T23:09:34.031Z,49.13
2023-02-10T23:12:37.940Z,46.50
2023-02-10T23:15:40.226Z,45.53
2023-02-10T23:18:42.872Z,48.15
2023-02-10T23:21:45.652Z,47.85
2023-02-10T23:24:48.079Z,44.77
2023-02-10T23:27:50.722Z,52.22
2023-02-10T23:30:53.375Z,52.72
2023-02-10T23:33:56.099Z,41.28
2023-02-10T23:36:58.554Z,43.42
2023-02-10T23:40:00.994Z,41.57
2023-02-10T23:43:03.897Z,48.45
2023-02-10T23:46:07.656Z,40.08
2023-02-10T23:49:10.334Z,48.87
2023-02-10T23:52:13.052Z,46.83
2023-02-10T23:55:16.765Z,51.92
2023-02-10T23:58:19.307Z,51.53
